createdAt,value
2022-12-05T00:00:36.684Z,3.79
2022-12-05T00:01:36.704Z,3.84
2022-12-05T00:02:36.613Z,3.79
2022-12-05T00:03:36.426Z,3.65
2022-12-05T00:04:36.391Z,3.64
2022-12-05T00:05:36.276Z,3.72
2022-12-05T00:06:36.164Z,3.77
2022-12-05T00:07:36.107Z,3.82
2022-12-05T00:08:35.996Z,3.77
2022-12-05T00:09:35.912Z,3.77
2022-12-05T00:10:35.821Z,3.72
2022-12-05T00:11:35.740Z,3.80
2022-12-05T00:12:35.649Z,3.75
2022-12-05T00:13:35.565Z,3.74
2022-12-05T00:14:35.486Z,3.69
2022-12-05T00:15:35.398Z,3.66
2022-12-05T00:16:35.500Z,3.66
2022-12-05T00:17:35.220Z,3.64
2022-12-05T00:18:35.134Z,3.61
2022-12-05T00:19:35.045Z,3.57
2022-12-05T00:20:35.161Z,3.72
2022-12-05T00:21:34.904Z,3.77
2022-12-05T00:22:34.791Z,3.68
2022-12-05T00:23:34.702Z,3.71
2022-12-05T00:24:34.618Z,3.69
2022-12-05T00:25:34.532Z,3.64
2022-12-05T00:26:34.445Z,3.62
2022-12-05T00:27:34.357Z,3.71
2022-12-05T00:28:34.274Z,3.61
2022-12-05T00:29:34.186Z,3.62
2022-12-05T00:30:34.104Z,3.71
2022-12-05T00:31:34.110Z,3.71
2022-12-05T00:32:33.936Z,3.69
2022-12-05T00:33:33.841Z,3.83
2022-12-05T00:34:33.754Z,3.89
2022-12-05T00:35:33.824Z,3.80
2022-12-05T00:36:33.582Z,3.86
2022-12-05T00:37:33.572Z,3.80
2022-12-05T00:38:33.409Z,3.86
2022-12-05T00:39:33.326Z,3.82
2022-12-05T00:40:33.241Z,3.84
2022-12-05T00:41:33.152Z,3.94
2022-12-05T00:42:33.067Z,3.90
2022-12-05T00:43:32.982Z,4.00
2022-12-05T00:44:32.897Z,3.89
2022-12-05T00:45:33.017Z,3.90
2022-12-05T00:46:32.813Z,3.79
2022-12-05T00:47:32.644Z,3.80
2022-12-05T00:48:32.552Z,3.80
2022-12-05T00:49:32.468Z,3.86
2022-12-05T00:50:32.381Z,3.82
2022-12-05T00:51:32.294Z,3.89
2022-12-05T00:52:32.210Z,3.90
2022-12-05T00:53:32.148Z,3.80
2022-12-05T00:54:32.036Z,3.82
2022-12-05T00:55:31.952Z,3.82
2022-12-05T00:56:31.867Z,3.80
2022-12-05T00:57:31.779Z,3.80
2022-12-05T00:58:31.693Z,3.82
2022-12-05T00:59:31.613Z,3.80
2022-12-05T01:00:31.522Z,3.77
2022-12-05T01:01:31.534Z,3.80
2022-12-05T01:02:31.349Z,3.84
2022-12-05T01:03:31.363Z,3.84
2022-12-05T01:04:31.179Z,3.86
2022-12-05T01:05:31.094Z,3.89
2022-12-05T01:06:31.007Z,3.92
2022-12-05T01:07:30.986Z,3.89
2022-12-05T01:08:30.836Z,3.83
2022-12-05T01:09:30.773Z,3.79
2022-12-05T01:10:30.665Z,3.87
2022-12-05T01:11:30.579Z,3.84
2022-12-05T01:12:30.491Z,3.86
2022-12-05T01:13:30.403Z,3.93
2022-12-05T01:14:30.321Z,3.79
2022-12-05T01:15:30.232Z,3.75
2022-12-05T01:16:30.233Z,3.79
2022-12-05T01:17:30.071Z,3.82
2022-12-05T01:18:29.976Z,3.83
2022-12-05T01:19:29.895Z,3.74
2022-12-05T01:20:29.804Z,3.79
2022-12-05T01:21:29.721Z,3.82
2022-12-05T01:22:29.631Z,3.79
2022-12-05T01:23:29.548Z,3.80
2022-12-05T01:24:29.460Z,3.86
2022-12-05T01:25:29.396Z,3.79
2022-12-05T01:26:29.304Z,3.89
2022-12-05T01:27:29.267Z,3.92
2022-12-05T01:28:29.165Z,3.86
2022-12-05T01:29:29.029Z,3.83
2022-12-05T01:30:28.943Z,3.90
2022-12-05T01:31:28.920Z,3.90
2022-12-05T01:32:28.771Z,3.92
2022-12-05T01:33:28.687Z,4.02
2022-12-05T01:34:28.600Z,4.02
2022-12-05T01:35:28.514Z,4.01
2022-12-05T01:36:28.578Z,4.07
2022-12-05T01:37:28.345Z,3.98
2022-12-05T01:38:28.257Z,4.02
2022-12-05T01:39:28.170Z,3.92
2022-12-05T01:40:28.096Z,3.87
2022-12-05T01:41:28.023Z,3.84
2022-12-05T01:42:27.914Z,3.92
2022-12-05T01:43:27.828Z,3.89
2022-12-05T01:44:28.050Z,3.87
2022-12-05T01:45:27.656Z,3.86
2022-12-05T01:46:27.724Z,3.94
2022-12-05T01:47:27.536Z,3.94
2022-12-05T01:48:27.399Z,3.83
2022-12-05T01:49:27.321Z,3.87
2022-12-05T01:50:27.227Z,3.86
2022-12-05T01:51:27.143Z,3.75
2022-12-05T01:52:27.056Z,3.84
2022-12-05T01:53:26.972Z,3.80
2022-12-05T01:54:26.883Z,3.82
2022-12-05T01:55:26.800Z,3.92
2022-12-05T01:56:26.715Z,3.89
2022-12-05T01:57:26.648Z,3.89
2022-12-05T01:58:26.540Z,3.93
2022-12-05T01:59:26.454Z,3.92
2022-12-05T02:00:26.372Z,3.89
2022-12-05T02:01:26.387Z,3.89
2022-12-05T02:02:26.237Z,3.89
2022-12-05T02:03:26.112Z,3.92
2022-12-05T02:04:26.026Z,3.94
2022-12-05T02:05:25.940Z,3.98
2022-12-05T02:06:25.854Z,3.94
2022-12-05T02:07:25.774Z,4.00
2022-12-05T02:08:25.683Z,3.94
2022-12-05T02:09:25.597Z,4.01
2022-12-05T02:10:25.510Z,3.94
2022-12-05T02:11:25.423Z,4.01
2022-12-05T02:12:25.342Z,4.04
2022-12-05T02:13:26.961Z,3.98
2022-12-05T02:14:25.168Z,4.08
2022-12-05T02:15:25.080Z,4.01
2022-12-05T02:16:25.108Z,4.08
2022-12-05T02:17:24.909Z,4.02
2022-12-05T02:18:24.828Z,4.04
2022-12-05T02:19:24.737Z,3.97
2022-12-05T02:20:24.652Z,3.97
2022-12-05T02:21:24.566Z,3.98
2022-12-05T02:22:24.480Z,3.98
2022-12-05T02:23:24.396Z,4.00
2022-12-05T02:24:24.311Z,3.98
2022-12-05T02:25:24.223Z,3.93
2022-12-05T02:26:24.138Z,4.00
2022-12-05T02:27:24.052Z,3.94
2022-12-05T02:28:23.965Z,3.89
2022-12-05T02:29:23.984Z,3.97
2022-12-05T02:30:23.798Z,3.98
2022-12-05T02:31:23.787Z,3.93
2022-12-05T02:32:23.623Z,3.90
2022-12-05T02:33:23.538Z,3.90
2022-12-05T02:34:23.449Z,3.93
2022-12-05T02:35:23.364Z,3.92
2022-12-05T02:36:23.280Z,3.90
2022-12-05T02:37:23.394Z,3.87
2022-12-05T02:38:23.106Z,3.92
2022-12-05T02:39:23.021Z,3.89
2022-12-05T02:40:22.947Z,3.92
2022-12-05T02:41:22.854Z,3.98
2022-12-05T02:42:22.764Z,4.00
2022-12-05T02:43:22.674Z,4.01
2022-12-05T02:44:22.595Z,4.00
2022-12-05T02:45:22.522Z,3.93
2022-12-05T02:46:22.469Z,3.92
2022-12-05T02:47:22.334Z,3.92
2022-12-05T02:48:22.247Z,3.93
2022-12-05T02:49:22.162Z,3.90
2022-12-05T02:50:22.077Z,3.90
2022-12-05T02:51:21.992Z,3.94
2022-12-05T02:52:21.904Z,3.97
2022-12-05T02:53:21.816Z,4.00
2022-12-05T02:54:21.730Z,4.02
2022-12-05T02:55:21.642Z,4.05
2022-12-05T02:56:21.562Z,4.04
2022-12-05T02:57:21.475Z,4.00
2022-12-05T02:58:21.385Z,4.02
2022-12-05T02:59:23.513Z,4.01
2022-12-05T03:00:21.216Z,4.02
2022-12-05T03:01:21.237Z,3.98
2022-12-05T03:02:21.043Z,4.11
2022-12-05T03:03:20.957Z,4.05
2022-12-05T03:04:20.976Z,4.04
2022-12-05T03:05:20.935Z,3.98
2022-12-05T03:06:20.702Z,4.05
2022-12-05T03:07:20.613Z,4.01
2022-12-05T03:08:20.617Z,4.12
2022-12-05T03:09:20.443Z,4.08
2022-12-05T03:10:20.357Z,4.04
2022-12-05T03:11:20.269Z,4.11
2022-12-05T03:12:20.189Z,4.02
2022-12-05T03:13:20.098Z,4.05
2022-12-05T03:14:20.014Z,4.01
2022-12-05T03:15:19.926Z,3.94
2022-12-05T03:16:19.896Z,4.02
2022-12-05T03:17:19.781Z,4.08
2022-12-05T03:18:19.669Z,4.08
2022-12-05T03:19:19.582Z,4.02
2022-12-05T03:20:19.501Z,4.02
2022-12-05T03:21:19.412Z,4.01
2022-12-05T03:22:19.324Z,4.08
2022-12-05T03:23:19.239Z,4.12
2022-12-05T03:24:19.154Z,4.08
2022-12-05T03:25:19.070Z,4.11
2022-12-05T03:26:18.982Z,4.02
2022-12-05T03:27:18.896Z,4.07
2022-12-05T03:28:18.961Z,4.10
2022-12-05T03:29:18.723Z,4.05
2022-12-05T03:30:18.642Z,4.15
2022-12-05T03:31:18.629Z,4.12
2022-12-05T03:32:18.567Z,4.23
2022-12-05T03:33:18.406Z,4.16
2022-12-05T03:34:18.297Z,4.22
2022-12-05T03:35:18.216Z,4.16
2022-12-05T03:36:18.127Z,4.15
2022-12-05T03:37:18.045Z,4.29
2022-12-05T03:38:17.972Z,4.11
2022-12-05T03:39:17.867Z,4.23
2022-12-05T03:40:17.783Z,4.16
2022-12-05T03:41:17.701Z,4.15
2022-12-05T03:42:17.611Z,4.20
2022-12-05T03:43:17.524Z,4.18
2022-12-05T03:44:17.441Z,4.15
2022-12-05T03:45:17.406Z,4.23
2022-12-05T03:46:17.311Z,4.28
2022-12-05T03:47:17.184Z,4.26
2022-12-05T03:48:17.098Z,4.22
2022-12-05T03:49:17.035Z,4.23
2022-12-05T03:50:16.928Z,4.28
2022-12-05T03:51:16.842Z,4.20
2022-12-05T03:52:16.856Z,4.25
2022-12-05T03:53:20.867Z,4.23
2022-12-05T03:54:16.584Z,4.23
2022-12-05T03:55:16.497Z,4.23
2022-12-05T03:56:16.415Z,4.20
2022-12-05T03:57:16.327Z,4.19
2022-12-05T03:58:16.241Z,4.20
2022-12-05T03:59:16.161Z,4.22
2022-12-05T04:00:16.074Z,4.28
2022-12-05T04:01:16.063Z,4.28
2022-12-05T04:02:15.902Z,4.26
2022-12-05T04:03:15.840Z,4.18
2022-12-05T04:04:15.731Z,4.25
2022-12-05T04:05:15.667Z,4.30
2022-12-05T04:06:15.557Z,4.34
2022-12-05T04:07:15.478Z,4.34
2022-12-05T04:08:15.457Z,4.29
2022-12-05T04:09:17.370Z,4.30
2022-12-05T04:10:15.218Z,4.38
2022-12-05T04:11:15.132Z,4.37
2022-12-05T04:12:15.152Z,4.29
2022-12-05T04:13:14.962Z,4.29
2022-12-05T04:14:14.874Z,4.11
2022-12-05T04:15:14.788Z,4.10
2022-12-05T04:16:14.804Z,4.12
2022-12-05T04:17:14.617Z,4.25
2022-12-05T04:18:14.531Z,4.28
2022-12-05T04:19:14.444Z,4.28
2022-12-05T04:20:14.368Z,4.43
2022-12-05T04:21:14.298Z,4.34
2022-12-05T04:22:14.189Z,4.30
2022-12-05T04:23:14.106Z,4.38
2022-12-05T04:24:14.019Z,4.30
2022-12-05T04:25:13.931Z,4.30
2022-12-05T04:26:13.847Z,4.36
2022-12-05T04:27:13.765Z,4.34
2022-12-05T04:28:19.630Z,4.30
2022-12-05T04:29:13.589Z,4.32
2022-12-05T04:30:13.510Z,4.36
2022-12-05T04:31:13.486Z,4.37
2022-12-05T04:32:13.332Z,4.29
2022-12-05T04:33:13.247Z,4.28
2022-12-05T04:34:13.161Z,4.28
2022-12-05T04:35:13.076Z,4.37
2022-12-05T04:36:12.990Z,4.34
2022-12-05T04:37:12.928Z,4.34
2022-12-05T04:38:12.817Z,4.32
2022-12-05T04:39:17.702Z,4.34
2022-12-05T04:40:12.648Z,4.26
2022-12-05T04:41:12.560Z,4.15
2022-12-05T04:42:12.477Z,4.36
2022-12-05T04:43:12.388Z,4.29
2022-12-05T04:44:12.305Z,4.32
2022-12-05T04:45:12.216Z,4.36
2022-12-05T04:46:12.194Z,4.36
2022-12-05T04:47:12.045Z,4.36
2022-12-05T04:48:11.965Z,4.30
2022-12-05T04:49:11.875Z,4.26
2022-12-05T04:50:11.791Z,4.28
2022-12-05T04:51:11.703Z,4.28
2022-12-05T04:52:11.620Z,4.37
2022-12-05T04:53:11.555Z,4.30
2022-12-05T04:54:11.445Z,4.34
2022-12-05T04:55:11.361Z,4.29
2022-12-05T04:56:11.274Z,4.28
2022-12-05T04:57:11.191Z,4.26
2022-12-05T04:58:11.102Z,4.29
2022-12-05T04:59:11.017Z,4.29
2022-12-05T05:00:10.931Z,4.28
2022-12-05T05:01:10.925Z,4.30
2022-12-05T05:02:10.862Z,4.32
2022-12-05T05:03:10.744Z,4.28
2022-12-05T05:04:10.588Z,4.30
2022-12-05T05:05:13.895Z,4.43
2022-12-05T05:06:10.413Z,4.34
2022-12-05T05:07:10.335Z,4.46
2022-12-05T05:08:10.297Z,4.44
2022-12-05T05:09:10.182Z,4.37
2022-12-05T05:10:10.072Z,4.30
2022-12-05T05:11:09.986Z,4.30
2022-12-05T05:12:14.338Z,4.28
2022-12-05T05:13:09.816Z,4.29
2022-12-05T05:14:09.728Z,4.37
2022-12-05T05:15:09.643Z,4.36
2022-12-05T05:16:09.610Z,4.28
2022-12-05T05:17:09.471Z,4.40
2022-12-05T05:18:09.385Z,4.44
2022-12-05T05:19:09.303Z,4.40
2022-12-05T05:20:09.213Z,4.47
2022-12-05T05:21:09.131Z,4.52
2022-12-05T05:22:09.048Z,4.46
2022-12-05T05:23:08.958Z,4.54
2022-12-05T05:24:08.871Z,4.52
2022-12-05T05:25:08.814Z,4.50
2022-12-05T05:26:08.699Z,4.56
2022-12-05T05:27:08.615Z,4.56
2022-12-05T05:28:08.527Z,4.52
2022-12-05T05:29:08.445Z,4.44
2022-12-05T05:30:08.358Z,4.38
2022-12-05T05:31:08.320Z,4.40
2022-12-05T05:32:08.186Z,4.46
2022-12-05T05:33:08.104Z,4.47
2022-12-05T05:34:09.931Z,4.40
2022-12-05T05:35:07.931Z,4.47
2022-12-05T05:36:07.846Z,4.44
2022-12-05T05:37:07.761Z,4.41
2022-12-05T05:38:07.774Z,4.50
2022-12-05T05:39:07.587Z,4.44
2022-12-05T05:40:10.982Z,4.36
2022-12-05T05:41:07.452Z,4.40
2022-12-05T05:42:07.331Z,4.50
2022-12-05T05:43:07.247Z,4.55
2022-12-05T05:44:07.160Z,4.58
2022-12-05T05:45:07.075Z,4.50
2022-12-05T05:46:07.069Z,4.48
2022-12-05T05:47:06.979Z,4.54
2022-12-05T05:48:06.818Z,4.55
2022-12-05T05:49:06.736Z,4.55
2022-12-05T05:50:06.646Z,4.56
2022-12-05T05:51:06.561Z,4.52
2022-12-05T05:52:06.477Z,4.50
2022-12-05T05:53:06.395Z,4.52
2022-12-05T05:54:06.305Z,4.54
2022-12-05T05:55:06.224Z,4.48
2022-12-05T05:56:06.133Z,4.55
2022-12-05T05:57:06.075Z,4.54
2022-12-05T05:58:05.963Z,4.54
2022-12-05T05:59:05.879Z,4.48
2022-12-05T06:00:05.793Z,4.52
2022-12-05T06:01:05.711Z,4.54
2022-12-05T06:02:05.622Z,4.52
2022-12-05T06:03:05.698Z,4.46
2022-12-05T06:04:05.638Z,4.44
2022-12-05T06:05:05.367Z,4.55
2022-12-05T06:06:05.278Z,4.52
2022-12-05T06:07:05.245Z,4.56
2022-12-05T06:08:05.199Z,4.47
2022-12-05T06:09:05.025Z,4.59
2022-12-05T06:10:04.937Z,4.54
2022-12-05T06:11:04.852Z,4.52
2022-12-05T06:12:04.767Z,4.55
2022-12-05T06:13:04.705Z,4.52
2022-12-05T06:14:04.598Z,4.52
2022-12-05T06:15:04.512Z,4.55
2022-12-05T06:16:04.507Z,4.52
2022-12-05T06:17:04.341Z,4.52
2022-12-05T06:18:04.253Z,4.56
2022-12-05T06:19:04.168Z,4.50
2022-12-05T06:20:04.184Z,4.55
2022-12-05T06:21:04.005Z,4.62
2022-12-05T06:22:03.911Z,4.61
2022-12-05T06:23:03.827Z,4.65
2022-12-05T06:24:03.741Z,4.62
2022-12-05T06:25:03.662Z,4.68
2022-12-05T06:26:03.570Z,4.64
2022-12-05T06:27:03.486Z,4.69
2022-12-05T06:28:03.399Z,4.69
2022-12-05T06:29:03.338Z,4.72
2022-12-05T06:30:03.230Z,4.62
2022-12-05T06:31:03.284Z,4.66
2022-12-05T06:32:03.135Z,4.69
2022-12-05T06:33:02.976Z,4.65
2022-12-05T06:34:02.888Z,4.62
2022-12-05T06:35:02.804Z,4.55
2022-12-05T06:36:02.717Z,4.52
2022-12-05T06:37:02.633Z,4.56
2022-12-05T06:38:02.696Z,4.62
2022-12-05T06:39:02.611Z,4.59
2022-12-05T06:40:02.377Z,4.64
2022-12-05T06:41:02.292Z,4.61
2022-12-05T06:42:02.205Z,4.62
2022-12-05T06:43:02.121Z,4.61
2022-12-05T06:44:02.824Z,4.62
2022-12-05T06:45:01.975Z,4.68
2022-12-05T06:46:01.928Z,4.69
2022-12-05T06:47:01.780Z,4.65
2022-12-05T06:48:01.793Z,4.65
2022-12-05T06:49:01.614Z,4.62
2022-12-05T06:50:01.521Z,4.73
2022-12-05T06:51:01.448Z,4.74
2022-12-05T06:52:01.357Z,4.76
2022-12-05T06:53:01.310Z,4.80
2022-12-05T06:54:01.180Z,4.84
2022-12-05T06:55:01.098Z,4.79
2022-12-05T06:56:01.012Z,4.93
2022-12-05T06:57:00.929Z,4.88
2022-12-05T06:58:00.840Z,4.85
2022-12-05T06:59:00.804Z,4.76
2022-12-05T07:00:00.709Z,4.69
2022-12-05T07:01:00.674Z,4.68
2022-12-05T07:02:00.564Z,4.80
2022-12-05T07:03:00.419Z,4.88
2022-12-05T07:04:00.334Z,4.85
2022-12-05T07:05:00.246Z,4.80
2022-12-05T07:06:00.159Z,4.80
2022-12-05T07:07:00.073Z,4.79
2022-12-05T07:08:00.082Z,4.83
2022-12-05T07:08:59.904Z,4.91
2022-12-05T07:10:00.328Z,4.87
2022-12-05T07:10:59.735Z,4.84
2022-12-05T07:11:59.650Z,4.91
2022-12-05T07:12:59.565Z,4.84
2022-12-05T07:13:59.478Z,4.85
2022-12-05T07:14:59.394Z,4.88
2022-12-05T07:15:59.507Z,4.85
2022-12-05T07:16:59.341Z,4.87
2022-12-05T07:17:59.138Z,4.85
2022-12-05T07:18:59.056Z,4.91
2022-12-05T07:19:59.279Z,4.76
2022-12-05T07:21:13.699Z,4.80
2022-12-05T07:21:58.798Z,4.85
2022-12-05T07:22:58.864Z,4.83
2022-12-05T07:23:58.628Z,4.76
2022-12-05T07:24:58.571Z,4.84
2022-12-05T07:25:58.455Z,4.91
2022-12-05T07:26:58.378Z,4.83
2022-12-05T07:27:58.288Z,4.76
2022-12-05T07:28:58.205Z,4.79
2022-12-05T07:29:58.539Z,4.77
2022-12-05T07:30:58.034Z,4.79
2022-12-05T07:31:58.017Z,4.79
2022-12-05T07:32:58.017Z,4.83
2022-12-05T07:33:57.777Z,4.83
2022-12-05T07:34:57.701Z,4.83
2022-12-05T07:35:57.605Z,4.85
2022-12-05T07:36:57.521Z,4.87
2022-12-05T07:37:57.435Z,4.79
2022-12-05T07:38:57.355Z,4.83
2022-12-05T07:39:57.576Z,4.77
2022-12-05T07:40:57.182Z,4.93
2022-12-05T07:41:57.096Z,4.87
2022-12-05T07:42:57.010Z,4.80
2022-12-05T07:43:56.923Z,4.91
2022-12-05T07:44:56.840Z,4.88
2022-12-05T07:45:56.834Z,4.87
2022-12-05T07:46:56.719Z,4.77
2022-12-05T07:47:56.703Z,4.96
2022-12-05T07:48:56.523Z,4.88
2022-12-05T07:49:56.729Z,4.79
2022-12-05T07:50:56.330Z,4.87
2022-12-05T07:51:56.243Z,4.93
2022-12-05T07:52:56.160Z,4.92
2022-12-05T07:53:56.073Z,4.79
2022-12-05T07:54:55.988Z,4.87
2022-12-05T07:55:55.903Z,4.96
2022-12-05T07:56:55.821Z,4.87
2022-12-05T07:57:55.733Z,4.77
2022-12-05T07:58:55.651Z,4.79
2022-12-05T07:59:55.774Z,4.83
2022-12-05T08:00:55.522Z,4.87
2022-12-05T08:01:55.454Z,4.91
2022-12-05T08:02:55.336Z,4.77
2022-12-05T08:03:55.472Z,4.91
2022-12-05T08:04:55.260Z,4.96
2022-12-05T08:05:55.050Z,4.79
2022-12-05T08:06:54.967Z,4.83
2022-12-05T08:07:54.929Z,4.91
2022-12-05T08:08:54.795Z,4.95
2022-12-05T08:09:54.816Z,4.91
2022-12-05T08:10:54.624Z,4.79
2022-12-05T08:11:54.541Z,4.73
2022-12-05T08:12:54.454Z,4.83
2022-12-05T08:13:54.369Z,4.87
2022-12-05T08:14:54.287Z,4.87
2022-12-05T08:15:54.199Z,4.96
2022-12-05T08:16:54.197Z,4.96
2022-12-05T08:17:54.325Z,4.84
2022-12-05T08:18:53.943Z,4.87
2022-12-05T08:19:53.857Z,4.93
2022-12-05T08:20:54.164Z,4.93
2022-12-05T08:21:53.686Z,4.92
2022-12-05T08:22:53.599Z,4.84
2022-12-05T08:23:53.515Z,4.95
2022-12-05T08:24:56.398Z,4.87
2022-12-05T08:25:53.345Z,4.91
2022-12-05T08:26:53.258Z,4.95
2022-12-05T08:27:53.174Z,5.08
2022-12-05T08:28:53.088Z,4.95
2022-12-05T08:29:53.003Z,4.95
2022-12-05T08:30:52.965Z,4.91
2022-12-05T08:31:52.832Z,4.95
2022-12-05T08:32:52.750Z,5.06
2022-12-05T08:33:57.094Z,4.98
2022-12-05T08:34:52.578Z,4.96
2022-12-05T08:35:52.489Z,4.96
2022-12-05T08:36:52.437Z,4.93
2022-12-05T08:37:52.320Z,5.11
2022-12-05T08:38:52.237Z,4.96
2022-12-05T08:39:52.150Z,5.06
2022-12-05T08:40:52.065Z,5.10
2022-12-05T08:41:51.977Z,4.96
2022-12-05T08:42:51.896Z,4.93
2022-12-05T08:43:51.810Z,4.93
2022-12-05T08:44:51.723Z,5.11
2022-12-05T08:45:51.687Z,5.05
2022-12-05T08:46:51.553Z,5.06
2022-12-05T08:47:51.469Z,5.05
2022-12-05T08:48:51.388Z,5.05
2022-12-05T08:49:51.297Z,5.13
2022-12-05T08:50:51.215Z,5.18
2022-12-05T08:51:51.127Z,5.10
2022-12-05T08:52:51.067Z,5.18
2022-12-05T08:53:50.955Z,5.16
2022-12-05T08:54:50.874Z,5.17
2022-12-05T08:55:50.789Z,5.26
2022-12-05T08:56:50.706Z,5.34
2022-12-05T08:57:50.618Z,5.21
2022-12-05T08:58:50.536Z,5.26
2022-12-05T08:59:50.448Z,5.24
2022-12-05T09:00:50.364Z,5.28
2022-12-05T09:01:50.318Z,5.32
2022-12-05T09:02:50.252Z,5.35
2022-12-05T09:03:50.109Z,5.36
2022-12-05T09:04:53.908Z,5.35
2022-12-05T09:05:54.755Z,5.35
2022-12-05T09:06:49.853Z,5.39
2022-12-05T09:07:49.809Z,5.36
2022-12-05T09:08:49.710Z,5.41
2022-12-05T09:09:49.600Z,5.41
2022-12-05T09:10:49.515Z,5.44
2022-12-05T09:11:49.433Z,5.56
2022-12-05T09:12:49.347Z,5.44
2022-12-05T09:13:49.263Z,5.49
2022-12-05T09:14:49.178Z,5.53
2022-12-05T09:15:49.188Z,5.53
2022-12-05T09:16:49.009Z,5.53
2022-12-05T09:17:48.924Z,5.47
2022-12-05T09:18:48.840Z,5.45
2022-12-05T09:19:48.756Z,5.54
2022-12-05T09:20:48.669Z,5.52
2022-12-05T09:21:48.585Z,5.63
2022-12-05T09:22:48.500Z,5.59
2022-12-05T09:23:48.421Z,5.52
2022-12-05T09:24:48.450Z,5.56
2022-12-05T09:25:48.249Z,5.50
2022-12-05T09:26:48.162Z,5.53
2022-12-05T09:27:48.130Z,5.59
2022-12-05T09:28:47.995Z,5.52
2022-12-05T09:29:47.910Z,5.53
2022-12-05T09:30:47.863Z,5.53
2022-12-05T09:31:47.744Z,5.59
2022-12-05T09:32:47.657Z,5.56
2022-12-05T09:33:47.576Z,5.47
2022-12-05T09:34:47.488Z,5.34
2022-12-05T09:35:47.407Z,5.45
2022-12-05T09:36:47.323Z,5.52
2022-12-05T09:37:47.237Z,5.49
2022-12-05T09:38:47.150Z,5.53
2022-12-05T09:39:47.072Z,5.52
2022-12-05T09:40:47.002Z,5.52
2022-12-05T09:41:46.901Z,5.59
2022-12-05T09:42:46.817Z,5.53
2022-12-05T09:43:46.731Z,5.59
2022-12-05T09:44:46.648Z,5.53
2022-12-05T09:45:46.764Z,5.52
2022-12-05T09:46:46.524Z,5.65
2022-12-05T09:47:46.394Z,5.62
2022-12-05T09:48:46.310Z,5.78
2022-12-05T09:49:46.236Z,5.68
2022-12-05T09:50:46.139Z,5.56
2022-12-05T09:51:49.574Z,5.56
2022-12-05T09:52:45.972Z,5.63
2022-12-05T09:53:45.890Z,5.57
2022-12-05T09:54:45.802Z,5.54
2022-12-05T09:55:45.720Z,5.47
2022-12-05T09:56:45.652Z,5.39
2022-12-05T09:57:45.649Z,5.53
2022-12-05T09:58:45.466Z,5.36
2022-12-05T09:59:45.385Z,5.49
2022-12-05T10:00:45.298Z,5.56
2022-12-05T10:01:45.244Z,5.53
2022-12-05T10:02:45.146Z,5.47
2022-12-05T10:03:45.043Z,5.44
2022-12-05T10:04:45.035Z,5.41
2022-12-05T10:05:44.873Z,5.53
2022-12-05T10:06:44.789Z,5.50
2022-12-05T10:07:44.734Z,5.54
2022-12-05T10:08:44.822Z,5.50
2022-12-05T10:09:44.536Z,5.54
2022-12-05T10:10:44.449Z,5.59
2022-12-05T10:11:44.369Z,5.56
2022-12-05T10:12:44.325Z,5.68
2022-12-05T10:13:44.198Z,5.56
2022-12-05T10:14:44.116Z,5.52
2022-12-05T10:15:45.914Z,5.54
2022-12-05T10:16:44.001Z,5.53
2022-12-05T10:17:43.860Z,5.56
2022-12-05T10:18:43.772Z,5.62
2022-12-05T10:19:43.690Z,5.57
2022-12-05T10:20:43.604Z,5.50
2022-12-05T10:21:43.520Z,5.56
2022-12-05T10:22:43.434Z,5.54
2022-12-05T10:23:57.415Z,5.54
2022-12-05T10:24:43.464Z,5.54
2022-12-05T10:25:43.182Z,5.52
2022-12-05T10:26:43.095Z,5.52
2022-12-05T10:27:43.013Z,5.63
2022-12-05T10:28:42.951Z,5.49
2022-12-05T10:29:42.841Z,5.53
2022-12-05T10:30:42.841Z,5.52
2022-12-05T10:31:42.746Z,5.62
2022-12-05T10:32:42.590Z,5.60
2022-12-05T10:33:42.505Z,5.65
2022-12-05T10:34:42.425Z,5.77
2022-12-05T10:35:42.342Z,5.62
2022-12-05T10:36:42.249Z,5.68
2022-12-05T10:37:42.165Z,5.74
2022-12-05T10:38:42.081Z,5.72
2022-12-05T10:39:41.998Z,5.62
2022-12-05T10:40:41.914Z,5.53
2022-12-05T10:41:41.829Z,5.54
2022-12-05T10:42:41.743Z,5.50
2022-12-05T10:43:41.659Z,5.54
2022-12-05T10:44:41.590Z,5.68
2022-12-05T10:45:41.688Z,5.67
2022-12-05T10:46:41.489Z,5.57
2022-12-05T10:47:41.323Z,5.53
2022-12-05T10:48:41.236Z,5.52
2022-12-05T10:49:41.148Z,5.65
2022-12-05T10:50:41.066Z,5.74
2022-12-05T10:51:40.980Z,5.70
2022-12-05T10:52:40.895Z,5.78
2022-12-05T10:53:40.811Z,5.78
2022-12-05T10:54:40.727Z,5.89
2022-12-05T10:55:40.642Z,5.88
2022-12-05T10:56:40.708Z,5.78
2022-12-05T10:57:40.473Z,5.71
2022-12-05T10:58:40.387Z,5.71
2022-12-05T10:59:40.406Z,5.72
2022-12-05T11:00:40.252Z,5.72
2022-12-05T11:01:40.191Z,5.63
2022-12-05T11:02:40.050Z,5.72
2022-12-05T11:03:39.969Z,5.77
2022-12-05T11:04:39.939Z,5.72
2022-12-05T11:05:39.928Z,5.63
2022-12-05T11:06:39.710Z,5.86
2022-12-05T11:07:39.675Z,5.75
2022-12-05T11:09:03.916Z,5.81
2022-12-05T11:09:39.459Z,5.71
2022-12-05T11:10:39.376Z,5.62
2022-12-05T11:11:39.301Z,5.60
2022-12-05T11:12:39.208Z,5.63
2022-12-05T11:13:39.121Z,5.60
2022-12-05T11:14:39.035Z,5.65
2022-12-05T11:15:39.020Z,5.65
2022-12-05T11:16:38.990Z,5.59
2022-12-05T11:17:38.789Z,5.65
2022-12-05T11:18:38.697Z,5.75
2022-12-05T11:19:38.612Z,5.60
2022-12-05T11:20:38.530Z,5.62
2022-12-05T11:21:38.444Z,5.74
2022-12-05T11:22:38.358Z,5.74
2022-12-05T11:23:38.272Z,5.68
2022-12-05T11:24:38.191Z,5.71
2022-12-05T11:25:38.105Z,5.68
2022-12-05T11:26:38.020Z,5.60
2022-12-05T11:27:37.938Z,5.75
2022-12-05T11:28:37.852Z,5.71
2022-12-05T11:29:38.067Z,5.71
2022-12-05T11:30:37.680Z,5.74
2022-12-05T11:31:37.651Z,5.68
2022-12-05T11:32:37.532Z,5.70
2022-12-05T11:33:37.425Z,5.75
2022-12-05T11:34:37.391Z,5.75
2022-12-05T11:35:37.262Z,5.72
2022-12-05T11:36:37.172Z,5.68
2022-12-05T11:37:37.088Z,5.74
2022-12-05T11:38:37.004Z,5.80
2022-12-05T11:39:36.919Z,5.81
2022-12-05T11:40:38.770Z,5.80
2022-12-05T11:41:36.749Z,5.85
2022-12-05T11:42:36.765Z,5.80
2022-12-05T11:43:36.581Z,5.80
2022-12-05T11:44:36.498Z,5.80
2022-12-05T11:45:36.412Z,5.86
2022-12-05T11:46:36.396Z,5.89
2022-12-05T11:47:36.242Z,5.83
2022-12-05T11:48:36.177Z,5.75
2022-12-05T11:49:36.074Z,5.72
2022-12-05T11:50:35.990Z,5.72
2022-12-05T11:51:35.905Z,5.81
2022-12-05T11:52:40.417Z,5.80
2022-12-05T11:53:35.738Z,5.86
2022-12-05T11:55:03.977Z,5.83
2022-12-05T11:55:35.566Z,5.85
2022-12-05T11:56:35.486Z,5.93
2022-12-05T11:57:35.397Z,5.92
2022-12-05T11:58:35.312Z,5.88
2022-12-05T11:59:35.228Z,5.99
2022-12-05T12:00:35.145Z,5.89
2022-12-05T12:01:35.146Z,5.89
2022-12-05T12:02:35.086Z,5.89
2022-12-05T12:03:34.946Z,5.81
2022-12-05T12:04:34.831Z,5.74
2022-12-05T12:05:34.719Z,5.75
2022-12-05T12:06:34.635Z,5.85
2022-12-05T12:07:34.568Z,5.75
2022-12-05T12:08:34.466Z,5.81
2022-12-05T12:09:34.385Z,5.86
2022-12-05T12:10:34.296Z,5.92
2022-12-05T12:11:34.215Z,5.80
2022-12-05T12:12:34.127Z,5.78
2022-12-05T12:13:34.044Z,5.78
2022-12-05T12:14:33.958Z,5.88
2022-12-05T12:15:33.876Z,5.80
2022-12-05T12:16:33.825Z,5.83
2022-12-05T12:17:33.704Z,5.81
2022-12-05T12:18:33.621Z,5.80
2022-12-05T12:19:33.535Z,5.93
2022-12-05T12:20:33.471Z,5.80
2022-12-05T12:21:38.437Z,5.75
2022-12-05T12:22:33.282Z,5.74
2022-12-05T12:23:33.200Z,5.83
2022-12-05T12:24:33.113Z,5.78
2022-12-05T12:25:33.028Z,5.88
2022-12-05T12:26:32.942Z,5.78
2022-12-05T12:27:32.859Z,5.81
2022-12-05T12:28:32.774Z,5.83
2022-12-05T12:29:32.691Z,5.86
2022-12-05T12:30:32.677Z,5.93
2022-12-05T12:31:32.603Z,5.80
2022-12-05T12:32:32.437Z,5.83
2022-12-05T12:33:32.350Z,5.81
2022-12-05T12:34:32.274Z,5.81
2022-12-05T12:35:32.182Z,5.88
2022-12-05T12:36:32.115Z,5.83
2022-12-05T12:37:32.011Z,5.78
2022-12-05T12:38:31.928Z,5.83
2022-12-05T12:39:31.846Z,5.78
2022-12-05T12:40:31.758Z,5.74
2022-12-05T12:41:31.740Z,5.80
2022-12-05T12:42:31.589Z,5.77
2022-12-05T12:43:53.314Z,5.71
2022-12-05T12:44:31.420Z,5.74
2022-12-05T12:45:31.449Z,5.75
2022-12-05T12:46:31.296Z,5.72
2022-12-05T12:47:31.180Z,5.80
2022-12-05T12:48:31.082Z,5.81
2022-12-05T12:49:30.998Z,5.78
2022-12-05T12:50:30.910Z,5.67
2022-12-05T12:51:30.829Z,5.68
2022-12-05T12:52:30.759Z,5.71
2022-12-05T12:53:30.658Z,5.71
2022-12-05T12:55:01.683Z,5.67
2022-12-05T12:55:30.490Z,5.72
2022-12-05T12:56:30.403Z,5.71
2022-12-05T12:57:30.318Z,5.80
2022-12-05T12:58:30.235Z,5.80
2022-12-05T12:59:30.150Z,5.80
2022-12-05T13:00:30.065Z,5.74
2022-12-05T13:01:30.090Z,5.74
2022-12-05T13:02:29.944Z,5.74
2022-12-05T13:03:29.961Z,5.62
2022-12-05T13:04:29.729Z,5.71
2022-12-05T13:05:29.643Z,5.77
2022-12-05T13:06:29.554Z,5.71
2022-12-05T13:07:29.601Z,5.72
2022-12-05T13:08:29.406Z,5.71
2022-12-05T13:09:29.303Z,5.67
2022-12-05T13:10:29.304Z,5.71
2022-12-05T13:11:29.133Z,5.63
2022-12-05T13:12:29.047Z,5.75
2022-12-05T13:13:31.996Z,5.74
2022-12-05T13:14:28.877Z,5.75
2022-12-05T13:15:28.794Z,5.78
2022-12-05T13:16:28.794Z,5.78
2022-12-05T13:17:28.626Z,5.77